Saint Ignace, MI

9:32 AM EST on February 19, 2017 (GMT -0500)
Mackinac Island

Weather History for KMCD - April, 2012

Change the Weather History Date:

Sunday, April 29, 2012

  Actual Average Record
Temperature  
Mean Temperature 44 °F -  
Max Temperature 57 °F 51 °F 69 °F (2004)
Min Temperature 30 °F 35 °F 27 °F (1977)
Degree Days  
Heating Degree Days 22    
Moisture  
Dew Point 18 °F    
Average Humidity 40    
Maximum Humidity 80    
Minimum Humidity 15    
Precipitation  
Precipitation 0.00 in - - ()
Sea Level Pressure  
Sea Level Pressure 30.28 in    
Wind  
Wind Speed 2 mph (East)    
Max Wind Speed 9 mph    
Max Gust Speed -    
Visibility 10 miles    
Events      
Averages and records for this station are not official NWS values.
T = Trace of Precipitation, MM = Missing Value Source: NWS Daily Summary

Daily Weather History Graph

Daily Weather History Graph

Search for Another Location

Airport or City:

Trip Planner

Search our weather history database for the weather conditions in past years. The results will help you decide how hot, cold, wet, or windy it might be!

Date:

Astronomy

Apr. 29, 2012 Rise Set
Actual Time 6:28 AM EDT 8:44 PM EDT
Civil Twilight 5:55 AM EDT 9:17 PM EDT
Nautical Twilight 5:14 AM EDT 9:58 PM EDT
Astronomical Twilight 4:29 AM EDT 10:44 PM EDT
Moon 1:13 PM EDT (4/29) 2:41 AM EDT (4/29)
Length of Visible Light 15h 21m
Length of Day
14h 16m
First Quarter, 53% of the Moon is Illuminated
Apr 29
First Quarter
May 5
Full
May 12
Last Quarter
May 20
New
May 28
First Quarter

Hourly Weather History & Observations

Time (EDT) Temp. Windchill Dew Point Humidity Pressure Visibility Wind Dir Wind Speed Gust Speed Precip Events Conditions
12:16 AM 35.2 °F 31.2 °F 19.9 °F 54% 30.25 in 10.0 mi North 4.6 mph - N/A   Clear
12:36 AM 34.7 °F - 20.5 °F 56% 30.25 in 10.0 mi Calm Calm - N/A   Clear
12:56 AM 34.0 °F - 19.9 °F 56% 30.26 in 10.0 mi Calm Calm - N/A   Clear
1:16 AM 32.9 °F - 22.6 °F 66% 30.26 in 10.0 mi Calm Calm - N/A   Clear
1:36 AM 32.5 °F - 23.2 °F 68% 30.26 in 10.0 mi Calm Calm - N/A   Clear
1:56 AM 32.0 °F - 23.4 °F 70% 30.26 in 10.0 mi Calm Calm - N/A   Clear
2:16 AM 31.1 °F - 21.7 °F 68% 30.26 in 10.0 mi Calm Calm - N/A   Clear
2:36 AM 31.5 °F - 22.5 °F 69% 30.26 in 10.0 mi Calm Calm - N/A   Clear
2:56 AM 31.6 °F - 22.1 °F 68% 30.26 in 10.0 mi Calm Calm - N/A   Clear
3:16 AM 32.0 °F - 22.1 °F 67% 30.27 in 10.0 mi Calm Calm - N/A   Clear
3:36 AM 31.3 °F - 23.0 °F 71% 30.27 in 10.0 mi Calm Calm - N/A   Clear
3:56 AM 30.9 °F - 22.1 °F 70% 30.28 in 10.0 mi Calm Calm - N/A   Clear
4:16 AM 31.6 °F - 23.7 °F 73% 30.29 in 10.0 mi Calm Calm - N/A   Clear
4:36 AM 32.4 °F 29.1 °F 25.0 °F 74% 30.29 in 10.0 mi NNW 3.5 mph - N/A   Clear
4:56 AM 33.8 °F 30.8 °F 25.9 °F 73% 30.30 in 10.0 mi NNW 3.5 mph - N/A   Clear
5:16 AM 34.7 °F 30.6 °F 23.4 °F 63% 30.31 in 10.0 mi NNW 4.6 mph - N/A   Clear
5:36 AM 32.9 °F 29.8 °F 23.9 °F 69% 30.32 in 10.0 mi North 3.5 mph - N/A   Clear
5:56 AM 33.1 °F - 23.5 °F 68% 30.31 in 10.0 mi Calm Calm - N/A   Clear
6:16 AM 32.0 °F 28.7 °F 24.1 °F 73% 30.31 in 10.0 mi NNE 3.5 mph - N/A   Clear
6:36 AM 31.1 °F 27.7 °F 25.3 °F 79% 30.31 in 10.0 mi North 3.5 mph - N/A   Clear
6:56 AM 30.2 °F 25.4 °F 24.8 °F 80% 30.32 in 10.0 mi North 4.6 mph - N/A   Clear
7:56 AM 35.8 °F - 26.8 °F 70% 30.33 in 10.0 mi Calm Calm - N/A   Clear
8:16 AM 37.6 °F 35.1 °F 25.7 °F 62% 30.33 in 10.0 mi NNE 3.5 mph - N/A   Clear
8:36 AM 38.5 °F 34.1 °F 25.7 °F 60% 30.34 in 10.0 mi NNE 5.8 mph - N/A   Clear
8:56 AM 39.9 °F 37.8 °F 26.2 °F 58% 30.33 in 10.0 mi North 3.5 mph - N/A   Clear
9:16 AM 40.1 °F 38.0 °F 24.8 °F 54% 30.34 in 10.0 mi NNW 3.5 mph - N/A   Clear
9:36 AM 40.3 °F - 24.6 °F 54% 30.35 in 10.0 mi Calm Calm - N/A   Clear
9:56 AM 43.7 °F - 19.2 °F 38% 30.34 in 10.0 mi Calm Calm - N/A   Clear
10:16 AM 45.5 °F - 19.0 °F 35% 30.34 in 10.0 mi Calm Calm - N/A   Clear
10:36 AM 46.8 °F - 17.1 °F 31% 30.35 in 10.0 mi Calm Calm - N/A   Clear
10:56 AM 49.1 °F - 17.4 °F 28% 30.35 in 10.0 mi ENE 3.5 mph - N/A   Clear
11:16 AM 49.5 °F - 18.3 °F 29% 30.35 in 10.0 mi Calm Calm - N/A   Clear
11:36 AM 50.4 °F - 20.3 °F 31% 30.33 in 10.0 mi North 3.5 mph - N/A   Clear
11:56 AM 49.6 °F - 17.8 °F 28% 30.34 in 10.0 mi WNW 4.6 mph - N/A   Clear
12:16 PM 51.3 °F - 15.1 °F 24% 30.35 in 10.0 mi WNW 5.8 mph - N/A   Clear
12:36 PM 51.6 °F - 11.1 °F 20% 30.35 in 10.0 mi WNW 4.6 mph - N/A   Clear
12:56 PM 54.5 °F - 10.2 °F 17% 30.34 in 7.0 mi NE 5.8 mph - N/A   Clear
1:16 PM 53.2 °F - 12.4 °F 20% 30.33 in 10.0 mi Calm Calm - N/A   Clear
1:36 PM 53.8 °F - 12.9 °F 20% 30.32 in 10.0 mi Calm Calm - N/A   Clear
1:56 PM 54.1 °F - 12.2 °F 19% 30.31 in 10.0 mi ESE 6.9 mph - N/A   Clear
2:16 PM 55.9 °F - 13.1 °F 18% 30.30 in 10.0 mi East 3.5 mph - N/A   Clear
2:36 PM 55.2 °F - 13.3 °F 19% 30.29 in 10.0 mi Calm Calm - N/A   Clear
2:56 PM 54.3 °F - 12.9 °F 19% 30.28 in 10.0 mi SSE 9.2 mph - N/A   Clear
3:16 PM 54.5 °F - 16.9 °F 23% 30.28 in 10.0 mi South 4.6 mph - N/A   Clear
3:36 PM 52.7 °F - 16.7 °F 24% 30.29 in 10.0 mi South 8.1 mph - N/A   Clear
3:56 PM 53.4 °F - 13.8 °F 21% 30.29 in 10.0 mi South 8.1 mph - N/A   Clear
4:16 PM 54.7 °F - 12.6 °F 19% 30.28 in 10.0 mi South 8.1 mph - N/A   Clear
4:36 PM 55.4 °F - 12.2 °F 18% 30.27 in 10.0 mi SSE 4.6 mph - N/A   Clear
4:56 PM 55.4 °F - 13.1 °F 19% 30.26 in 10.0 mi South 6.9 mph - N/A   Clear
5:16 PM 57.4 °F - 14.5 °F 19% 30.25 in 10.0 mi SE 4.6 mph - N/A   Clear
5:36 PM 57.2 °F - 16.3 °F 20% 30.25 in 10.0 mi East 5.8 mph - N/A   Clear
5:56 PM 55.9 °F - 15.3 °F 20% 30.25 in 10.0 mi East 4.6 mph - N/A   Clear
6:16 PM 56.5 °F - 14.0 °F 19% 30.25 in 10.0 mi East 3.5 mph - N/A   Clear
6:36 PM 57.2 °F - 12.4 °F 17% 30.25 in 10.0 mi East 3.5 mph - N/A   Clear
6:56 PM 56.5 °F - 14.5 °F 19% 30.25 in 10.0 mi Calm Calm - N/A   Clear
7:16 PM 55.0 °F - 14.5 °F 20% 30.24 in 10.0 mi East 3.5 mph - N/A   Clear
7:36 PM 54.1 °F - 15.4 °F 22% 30.23 in 10.0 mi East 4.6 mph - N/A   Clear
7:56 PM 53.2 °F - 15.3 °F 22% 30.22 in 10.0 mi Calm Calm - N/A   Clear
8:16 PM 52.3 °F - 10.0 °F 18% 30.21 in 10.0 mi ESE 3.5 mph - N/A   Clear
8:36 PM 51.4 °F - 14.2 °F 23% 30.21 in 10.0 mi ESE 4.6 mph - N/A   Clear
8:56 PM 51.1 °F - 15.3 °F 24% 30.21 in 10.0 mi ESE 4.6 mph - N/A   Clear
9:16 PM 51.3 °F - 14.9 °F 24% 30.21 in 10.0 mi Calm Calm - N/A   Clear
9:36 PM 51.1 °F - 11.3 °F 20% 30.21 in 10.0 mi ESE 3.5 mph - N/A   Clear
10:16 PM 49.5 °F - 2.8 °F 15% 30.22 in 10.0 mi Calm Calm - N/A   Clear
10:36 PM 49.3 °F - 5.5 °F 17% 30.22 in 10.0 mi Calm Calm - N/A   Clear
10:56 PM 49.8 °F - 8.2 °F 19% 30.22 in 10.0 mi South 3.5 mph - N/A   Clear
11:16 PM 49.1 °F - 12.2 °F 23% 30.22 in 10.0 mi South 4.6 mph - N/A   Clear
11:36 PM 48.2 °F - 14.7 °F 26% 30.21 in 10.0 mi SSE 3.5 mph - N/A   Clear
11:56 PM 48.0 °F - 15.8 °F 28% 30.20 in 10.0 mi Calm Calm - N/A   Clear